sensor_id;sensor_type;location;lat;lon;timestamp;temperature;humidity
51559;DHT22;61650;48.882;2.092;2022-07-18T00:01:37;19.10;50.30
51559;DHT22;61650;48.882;2.092;2022-07-18T00:04:02;19.10;50.40
51559;DHT22;61650;48.882;2.092;2022-07-18T00:06:28;19.10;50.30
51559;DHT22;61650;48.882;2.092;2022-07-18T00:08:54;19.10;50.20
51559;DHT22;61650;48.882;2.092;2022-07-18T00:11:21;19.10;49.90
51559;DHT22;61650;48.882;2.092;2022-07-18T00:13:47;19.10;49.90
51559;DHT22;61650;48.882;2.092;2022-07-18T00:16:13;19.10;50.40
51559;DHT22;61650;48.882;2.092;2022-07-18T00:18:38;19.00;50.20
51559;DHT22;61650;48.882;2.092;2022-07-18T00:21:04;18.90;50.30
51559;DHT22;61650;48.882;2.092;2022-07-18T00:23:30;18.90;50.70
51559;DHT22;61650;48.882;2.092;2022-07-18T00:25:56;18.90;50.70
51559;DHT22;61650;48.882;2.092;2022-07-18T00:28:21;18.80;50.70
51559;DHT22;61650;48.882;2.092;2022-07-18T00:30:47;18.80;50.60
51559;DHT22;61650;48.882;2.092;2022-07-18T00:33:13;18.90;50.60
51559;DHT22;61650;48.882;2.092;2022-07-18T00:35:38;18.80;51.00
51559;DHT22;61650;48.882;2.092;2022-07-18T00:38:04;18.60;51.70
51559;DHT22;61650;48.882;2.092;2022-07-18T00:40:31;18.50;51.70
51559;DHT22;61650;48.882;2.092;2022-07-18T00:42:57;18.60;51.30
51559;DHT22;61650;48.882;2.092;2022-07-18T00:45:22;18.60;51.30
51559;DHT22;61650;48.882;2.092;2022-07-18T00:47:48;18.60;51.40
51559;DHT22;61650;48.882;2.092;2022-07-18T00:50:17;18.60;51.70
51559;DHT22;61650;48.882;2.092;2022-07-18T00:52:43;18.60;51.40
51559;DHT22;61650;48.882;2.092;2022-07-18T00:55:09;18.70;51.20
51559;DHT22;61650;48.882;2.092;2022-07-18T00:57:35;18.70;51.40
51559;DHT22;61650;48.882;2.092;2022-07-18T01:00:04;18.60;51.70
51559;DHT22;61650;48.882;2.092;2022-07-18T01:02:48;18.50;51.60
51559;DHT22;61650;48.882;2.092;2022-07-18T01:05:14;18.50;51.60
51559;DHT22;61650;48.882;2.092;2022-07-18T01:07:40;18.40;52.30
51559;DHT22;61650;48.882;2.092;2022-07-18T01:10:06;18.20;52.80
51559;DHT22;61650;48.882;2.092;2022-07-18T01:12:32;18.20;52.60
51559;DHT22;61650;48.882;2.092;2022-07-18T01:14:58;18.20;52.40
51559;DHT22;61650;48.882;2.092;2022-07-18T01:17:24;18.30;52.20
51559;DHT22;61650;48.882;2.092;2022-07-18T01:19:50;18.30;52.10
51559;DHT22;61650;48.882;2.092;2022-07-18T01:22:17;18.20;52.30
51559;DHT22;61650;48.882;2.092;2022-07-18T01:24:44;18.20;52.90
51559;DHT22;61650;48.882;2.092;2022-07-18T01:27:14;18.00;53.00
51559;DHT22;61650;48.882;2.092;2022-07-18T01:29:40;18.00;53.40
51559;DHT22;61650;48.882;2.092;2022-07-18T01:32:08;18.00;53.30
51559;DHT22;61650;48.882;2.092;2022-07-18T01:34:33;18.00;53.20
51559;DHT22;61650;48.882;2.092;2022-07-18T01:37:00;18.00;53.50
51559;DHT22;61650;48.882;2.092;2022-07-18T01:39:26;18.00;53.80
51559;DHT22;61650;48.882;2.092;2022-07-18T01:41:58;18.00;53.50
51559;DHT22;61650;48.882;2.092;2022-07-18T01:44:25;17.90;54.30
51559;DHT22;61650;48.882;2.092;2022-07-18T01:46:50;17.90;54.30
51559;DHT22;61650;48.882;2.092;2022-07-18T01:49:16;17.80;54.70
51559;DHT22;61650;48.882;2.092;2022-07-18T01:51:46;17.70;54.90
51559;DHT22;61650;48.882;2.092;2022-07-18T01:54:12;17.70;54.60
51559;DHT22;61650;48.882;2.092;2022-07-18T01:56:38;17.70;54.90
51559;DHT22;61650;48.882;2.092;2022-07-18T01:59:03;17.60;55.00
51559;DHT22;61650;48.882;2.092;2022-07-18T02:01:29;17.60;55.50
51559;DHT22;61650;48.882;2.092;2022-07-18T02:03:54;17.50;55.80
51559;DHT22;61650;48.882;2.092;2022-07-18T02:06:20;17.40;56.10
51559;DHT22;61650;48.882;2.092;2022-07-18T02:08:46;17.40;55.80
51559;DHT22;61650;48.882;2.092;2022-07-18T02:11:11;17.40;55.60
51559;DHT22;61650;48.882;2.092;2022-07-18T02:13:37;17.40;55.60
51559;DHT22;61650;48.882;2.092;2022-07-18T02:16:03;17.40;55.70
51559;DHT22;61650;48.882;2.092;2022-07-18T02:18:29;17.40;55.70
51559;DHT22;61650;48.882;2.092;2022-07-18T02:20:59;17.40;55.30
51559;DHT22;61650;48.882;2.092;2022-07-18T02:23:25;17.50;54.90
51559;DHT22;61650;48.882;2.092;2022-07-18T02:25:51;17.50;54.80
51559;DHT22;61650;48.882;2.092;2022-07-18T02:28:16;17.50;55.30
51559;DHT22;61650;48.882;2.092;2022-07-18T02:30:42;17.30;55.70
51559;DHT22;61650;48.882;2.092;2022-07-18T02:33:08;17.20;56.40
51559;DHT22;61650;48.882;2.092;2022-07-18T02:35:33;17.00;56.50
51559;DHT22;61650;48.882;2.092;2022-07-18T02:37:59;17.10;56.40
51559;DHT22;61650;48.882;2.092;2022-07-18T02:40:25;17.20;55.90
51559;DHT22;61650;48.882;2.092;2022-07-18T02:42:51;17.30;55.90
51559;DHT22;61650;48.882;2.092;2022-07-18T02:45:16;17.20;55.90
51559;DHT22;61650;48.882;2.092;2022-07-18T02:47:42;17.20;56.20
51559;DHT22;61650;48.882;2.092;2022-07-18T02:50:08;17.20;56.70
51559;DHT22;61650;48.882;2.092;2022-07-18T02:52:34;17.20;56.40
51559;DHT22;61650;48.882;2.092;2022-07-18T02:55:00;17.20;55.90
51559;DHT22;61650;48.882;2.092;2022-07-18T02:57:27;17.20;55.90
51559;DHT22;61650;48.882;2.092;2022-07-18T02:59:53;17.20;56.20
51559;DHT22;61650;48.882;2.092;2022-07-18T03:02:18;17.20;56.20
51559;DHT22;61650;48.882;2.092;2022-07-18T03:04:44;17.20;56.10
51559;DHT22;61650;48.882;2.092;2022-07-18T03:07:10;17.20;55.90
51559;DHT22;61650;48.882;2.092;2022-07-18T03:09:35;17.20;56.10
51559;DHT22;61650;48.882;2.092;2022-07-18T03:12:01;17.10;56.30
51559;DHT22;61650;48.882;2.092;2022-07-18T03:14:27;17.10;56.40
51559;DHT22;61650;48.882;2.092;2022-07-18T03:16:52;17.00;57.20
51559;DHT22;61650;48.882;2.092;2022-07-18T03:19:18;16.70;57.60
51559;DHT22;61650;48.882;2.092;2022-07-18T03:21:44;16.60;57.50
51559;DHT22;61650;48.882;2.092;2022-07-18T03:24:09;16.70;57.60
51559;DHT22;61650;48.882;2.092;2022-07-18T03:26:36;16.70;58.00
51559;DHT22;61650;48.882;2.092;2022-07-18T03:29:02;16.70;57.90
51559;DHT22;61650;48.882;2.092;2022-07-18T03:31:28;16.60;58.20
51559;DHT22;61650;48.882;2.092;2022-07-18T03:33:53;16.50;58.60
51559;DHT22;61650;48.882;2.092;2022-07-18T03:36:19;16.50;58.60
51559;DHT22;61650;48.882;2.092;2022-07-18T03:38:44;16.50;58.30
51559;DHT22;61650;48.882;2.092;2022-07-18T03:41:11;16.50;58.20
51559;DHT22;61650;48.882;2.092;2022-07-18T03:43:39;16.60;58.10
51559;DHT22;61650;48.882;2.092;2022-07-18T03:46:06;16.60;58.00
51559;DHT22;61650;48.882;2.092;2022-07-18T03:48:32;16.70;57.90
51559;DHT22;61650;48.882;2.092;2022-07-18T03:50:58;16.70;57.80
51559;DHT22;61650;48.882;2.092;2022-07-18T03:53:24;16.70;57.50
51559;DHT22;61650;48.882;2.092;2022-07-18T03:55:50;16.70;57.60
51559;DHT22;61650;48.882;2.092;2022-07-18T03:58:16;16.60;58.10
51559;DHT22;61650;48.882;2.092;2022-07-18T04:00:41;16.60;58.20
51559;DHT22;61650;48.882;2.092;2022-07-18T04:03:07;16.60;58.00
51559;DHT22;61650;48.882;2.092;2022-07-18T04:05:33;16.70;57.80
51559;DHT22;61650;48.882;2.092;2022-07-18T04:07:59;16.70;58.00
51559;DHT22;61650;48.882;2.092;2022-07-18T04:10:25;16.40;59.70
51559;DHT22;61650;48.882;2.092;2022-07-18T04:12:52;16.00;59.70
51559;DHT22;61650;48.882;2.092;2022-07-18T04:15:19;16.10;59.50
51559;DHT22;61650;48.882;2.092;2022-07-18T04:17:44;16.20;59.70
51559;DHT22;61650;48.882;2.092;2022-07-18T04:20:11;16.30;59.60
51559;DHT22;61650;48.882;2.092;2022-07-18T04:22:54;16.20;59.70
51559;DHT22;61650;48.882;2.092;2022-07-18T04:25:21;16.20;60.30
51559;DHT22;61650;48.882;2.092;2022-07-18T04:27:47;16.10;60.40
51559;DHT22;61650;48.882;2.092;2022-07-18T04:30:14;16.10;60.50
51559;DHT22;61650;48.882;2.092;2022-07-18T04:32:40;16.10;60.00
51559;DHT22;61650;48.882;2.092;2022-07-18T04:35:06;16.10;59.70
51559;DHT22;61650;48.882;2.092;2022-07-18T04:37:32;16.20;59.90
51559;DHT22;61650;48.882;2.092;2022-07-18T04:39:59;16.20;59.70
51559;DHT22;61650;48.882;2.092;2022-07-18T04:42:25;16.20;59.90
51559;DHT22;61650;48.882;2.092;2022-07-18T04:44:50;16.20;59.70
51559;DHT22;61650;48.882;2.092;2022-07-18T04:47:16;16.30;59.60
51559;DHT22;61650;48.882;2.092;2022-07-18T04:49:42;16.30;59.40
51559;DHT22;61650;48.882;2.092;2022-07-18T04:52:08;16.40;59.10
51559;DHT22;61650;48.882;2.092;2022-07-18T04:54:34;16.40;58.80
51559;DHT22;61650;48.882;2.092;2022-07-18T04:56:59;16.50;58.70
51559;DHT22;61650;48.882;2.092;2022-07-18T04:59:25;16.50;58.60
51559;DHT22;61650;48.882;2.092;2022-07-18T05:01:50;16.50;59.00
51559;DHT22;61650;48.882;2.092;2022-07-18T05:04:16;16.50;58.90
51559;DHT22;61650;48.882;2.092;2022-07-18T05:06:42;16.50;59.20
51559;DHT22;61650;48.882;2.092;2022-07-18T05:09:08;16.50;59.10
51559;DHT22;61650;48.882;2.092;2022-07-18T05:11:33;16.60;58.50
51559;DHT22;61650;48.882;2.092;2022-07-18T05:13:59;16.70;58.60
51559;DHT22;61650;48.882;2.092;2022-07-18T05:16:25;16.80;57.90
51559;DHT22;61650;48.882;2.092;2022-07-18T05:18:50;16.90;57.80
51559;DHT22;61650;48.882;2.092;2022-07-18T05:21:16;17.00;57.60
51559;DHT22;61650;48.882;2.092;2022-07-18T05:23:41;17.00;57.40
51559;DHT22;61650;48.882;2.092;2022-07-18T05:26:07;17.10;57.20
51559;DHT22;61650;48.882;2.092;2022-07-18T05:28:32;17.30;57.10
51559;DHT22;61650;48.882;2.092;2022-07-18T05:30:58;17.40;56.80
51559;DHT22;61650;48.882;2.092;2022-07-18T05:33:24;17.50;56.60
51559;DHT22;61650;48.882;2.092;2022-07-18T05:35:50;17.60;56.60
51559;DHT22;61650;48.882;2.092;2022-07-18T05:38:15;17.80;56.90
51559;DHT22;61650;48.882;2.092;2022-07-18T05:40:41;17.90;56.90
51559;DHT22;61650;48.882;2.092;2022-07-18T05:43:07;18.10;56.40
51559;DHT22;61650;48.882;2.092;2022-07-18T05:45:33;18.30;55.90
51559;DHT22;61650;48.882;2.092;2022-07-18T05:47:58;18.20;56.40
51559;DHT22;61650;48.882;2.092;2022-07-18T05:50:24;18.20;56.50
51559;DHT22;61650;48.882;2.092;2022-07-18T05:52:50;18.40;56.40
51559;DHT22;61650;48.882;2.092;2022-07-18T05:55:16;18.50;56.10
51559;DHT22;61650;48.882;2.092;2022-07-18T05:57:42;18.60;56.50
51559;DHT22;61650;48.882;2.092;2022-07-18T06:00:10;18.70;56.80
51559;DHT22;61650;48.882;2.092;2022-07-18T06:02:36;18.80;56.50
51559;DHT22;61650;48.882;2.092;2022-07-18T06:05:03;18.90;56.40
51559;DHT22;61650;48.882;2.092;2022-07-18T06:07:29;19.00;56.60
51559;DHT22;61650;48.882;2.092;2022-07-18T06:09:54;19.10;56.80
51559;DHT22;61650;48.882;2.092;2022-07-18T06:12:21;19.10;56.70
51559;DHT22;61650;48.882;2.092;2022-07-18T06:14:46;19.30;56.40
51559;DHT22;61650;48.882;2.092;2022-07-18T06:17:12;19.40;56.50
51559;DHT22;61650;48.882;2.092;2022-07-18T06:19:37;19.50;56.20
51559;DHT22;61650;48.882;2.092;2022-07-18T06:22:05;19.60;55.70
51559;DHT22;61650;48.882;2.092;2022-07-18T06:24:30;19.80;55.40
51559;DHT22;61650;48.882;2.092;2022-07-18T06:26:56;19.90;55.20
51559;DHT22;61650;48.882;2.092;2022-07-18T06:29:22;20.00;54.90
51559;DHT22;61650;48.882;2.092;2022-07-18T06:31:47;20.10;54.80
51559;DHT22;61650;48.882;2.092;2022-07-18T06:34:13;20.20;54.60
51559;DHT22;61650;48.882;2.092;2022-07-18T06:36:39;20.20;54.50
51559;DHT22;61650;48.882;2.092;2022-07-18T06:39:04;20.40;54.30
51559;DHT22;61650;48.882;2.092;2022-07-18T06:41:36;20.50;53.90
51559;DHT22;61650;48.882;2.092;2022-07-18T06:44:02;20.60;53.60
51559;DHT22;61650;48.882;2.092;2022-07-18T06:46:27;20.70;53.50
51559;DHT22;61650;48.882;2.092;2022-07-18T06:48:53;20.90;52.50
51559;DHT22;61650;48.882;2.092;2022-07-18T06:51:19;21.10;51.30
51559;DHT22;61650;48.882;2.092;2022-07-18T06:53:44;21.30;51.20
51559;DHT22;61650;48.882;2.092;2022-07-18T06:56:10;21.50;51.10
51559;DHT22;61650;48.882;2.092;2022-07-18T06:58:36;21.60;51.00
51559;DHT22;61650;48.882;2.092;2022-07-18T07:01:01;21.80;50.70
51559;DHT22;61650;48.882;2.092;2022-07-18T07:03:27;22.20;50.00
51559;DHT22;61650;48.882;2.092;2022-07-18T07:05:53;22.50;48.80
51559;DHT22;61650;48.882;2.092;2022-07-18T07:08:19;22.60;48.60
51559;DHT22;61650;48.882;2.092;2022-07-18T07:10:45;22.50;48.60
51559;DHT22;61650;48.882;2.092;2022-07-18T07:13:11;22.50;48.20
51559;DHT22;61650;48.882;2.092;2022-07-18T07:15:36;22.70;47.50
51559;DHT22;61650;48.882;2.092;2022-07-18T07:18:02;22.80;47.30
51559;DHT22;61650;48.882;2.092;2022-07-18T07:20:28;22.80;47.30
51559;DHT22;61650;48.882;2.092;2022-07-18T07:22:55;22.90;47.20
51559;DHT22;61650;48.882;2.092;2022-07-18T07:25:23;22.90;47.10
51559;DHT22;61650;48.882;2.092;2022-07-18T07:27:49;23.00;47.10
51559;DHT22;61650;48.882;2.092;2022-07-18T07:30:16;23.00;46.90
51559;DHT22;61650;48.882;2.092;2022-07-18T07:32:43;23.00;46.80
51559;DHT22;61650;48.882;2.092;2022-07-18T07:35:11;23.10;46.80
51559;DHT22;61650;48.882;2.092;2022-07-18T07:37:47;23.30;46.70
51559;DHT22;61650;48.882;2.092;2022-07-18T07:40:14;23.40;46.60
51559;DHT22;61650;48.882;2.092;2022-07-18T07:42:40;23.40;46.70
51559;DHT22;61650;48.882;2.092;2022-07-18T07:45:06;23.70;46.20
51559;DHT22;61650;48.882;2.092;2022-07-18T07:47:32;24.00;45.80
51559;DHT22;61650;48.882;2.092;2022-07-18T07:49:59;24.00;46.10
51559;DHT22;61650;48.882;2.092;2022-07-18T07:52:24;24.00;46.10
51559;DHT22;61650;48.882;2.092;2022-07-18T07:54:51;24.10;45.80
51559;DHT22;61650;48.882;2.092;2022-07-18T07:57:16;24.40;45.20
51559;DHT22;61650;48.882;2.092;2022-07-18T07:59:42;24.60;44.90
51559;DHT22;61650;48.882;2.092;2022-07-18T08:02:08;24.80;44.40
51559;DHT22;61650;48.882;2.092;2022-07-18T08:04:34;24.70;44.50
51559;DHT22;61650;48.882;2.092;2022-07-18T08:06:59;24.70;44.70
51559;DHT22;61650;48.882;2.092;2022-07-18T08:09:25;24.60;44.70
51559;DHT22;61650;48.882;2.092;2022-07-18T08:11:50;24.90;44.40
51559;DHT22;61650;48.882;2.092;2022-07-18T08:14:16;25.00;43.90
51559;DHT22;61650;48.882;2.092;2022-07-18T08:16:42;25.10;43.90
51559;DHT22;61650;48.882;2.092;2022-07-18T08:19:08;25.20;43.70
51559;DHT22;61650;48.882;2.092;2022-07-18T08:21:33;25.30;43.30
51559;DHT22;61650;48.882;2.092;2022-07-18T08:23:59;25.40;43.10
51559;DHT22;61650;48.882;2.092;2022-07-18T08:26:25;25.60;43.00
51559;DHT22;61650;48.882;2.092;2022-07-18T08:28:51;25.70;42.80
51559;DHT22;61650;48.882;2.092;2022-07-18T08:31:17;25.80;42.60
51559;DHT22;61650;48.882;2.092;2022-07-18T08:33:44;25.80;42.60
51559;DHT22;61650;48.882;2.092;2022-07-18T08:36:10;25.90;42.40
51559;DHT22;61650;48.882;2.092;2022-07-18T08:38:36;26.00;42.10
51559;DHT22;61650;48.882;2.092;2022-07-18T08:41:03;26.10;42.10
51559;DHT22;61650;48.882;2.092;2022-07-18T08:43:28;26.20;41.60
51559;DHT22;61650;48.882;2.092;2022-07-18T08:45:56;26.40;41.00
51559;DHT22;61650;48.882;2.092;2022-07-18T08:48:26;26.50;41.20
51559;DHT22;61650;48.882;2.092;2022-07-18T08:50:52;26.60;40.80
51559;DHT22;61650;48.882;2.092;2022-07-18T08:53:19;27.20;39.60
51559;DHT22;61650;48.882;2.092;2022-07-18T08:55:46;27.60;38.00
51559;DHT22;61650;48.882;2.092;2022-07-18T08:58:12;27.80;37.90
51559;DHT22;61650;48.882;2.092;2022-07-18T09:00:40;27.80;38.20
51559;DHT22;61650;48.882;2.092;2022-07-18T09:03:05;28.20;37.50
51559;DHT22;61650;48.882;2.092;2022-07-18T09:05:32;28.50;36.50
51559;DHT22;61650;48.882;2.092;2022-07-18T09:08:13;28.90;35.40
51559;DHT22;61650;48.882;2.092;2022-07-18T09:10:51;28.80;35.30
51559;DHT22;61650;48.882;2.092;2022-07-18T09:13:20;28.90;35.70
51559;DHT22;61650;48.882;2.092;2022-07-18T09:16:16;28.80;36.10
51559;DHT22;61650;48.882;2.092;2022-07-18T09:18:44;28.70;34.80
51559;DHT22;61650;48.882;2.092;2022-07-18T09:23:38;29.20;34.40
51559;DHT22;61650;48.882;2.092;2022-07-18T09:26:05;29.50;34.00
51559;DHT22;61650;48.882;2.092;2022-07-18T09:28:51;29.70;33.90
51559;DHT22;61650;48.882;2.092;2022-07-18T09:31:21;29.80;31.90
51559;DHT22;61650;48.882;2.092;2022-07-18T09:34:00;29.70;33.70
51559;DHT22;61650;48.882;2.092;2022-07-18T09:36:27;30.10;31.90
51559;DHT22;61650;48.882;2.092;2022-07-18T09:38:54;30.40;32.30
51559;DHT22;61650;48.882;2.092;2022-07-18T09:41:24;30.40;32.10
51559;DHT22;61650;48.882;2.092;2022-07-18T09:43:50;30.40;32.00
51559;DHT22;61650;48.882;2.092;2022-07-18T09:46:16;30.40;32.10
51559;DHT22;61650;48.882;2.092;2022-07-18T09:48:44;30.20;32.30
51559;DHT22;61650;48.882;2.092;2022-07-18T09:51:10;30.10;32.10
51559;DHT22;61650;48.882;2.092;2022-07-18T09:53:41;29.90;32.00
51559;DHT22;61650;48.882;2.092;2022-07-18T09:56:23;30.30;30.90
51559;DHT22;61650;48.882;2.092;2022-07-18T09:58:54;30.50;30.10
51559;DHT22;61650;48.882;2.092;2022-07-18T10:01:20;30.50;29.60
51559;DHT22;61650;48.882;2.092;2022-07-18T10:03:46;30.60;30.30
51559;DHT22;61650;48.882;2.092;2022-07-18T10:06:15;30.90;29.50
51559;DHT22;61650;48.882;2.092;2022-07-18T10:08:41;31.10;29.10
51559;DHT22;61650;48.882;2.092;2022-07-18T10:11:07;31.40;28.50
51559;DHT22;61650;48.882;2.092;2022-07-18T10:13:35;31.60;27.60
51559;DHT22;61650;48.882;2.092;2022-07-18T10:16:01;31.60;27.90
51559;DHT22;61650;48.882;2.092;2022-07-18T10:18:28;31.60;27.80
51559;DHT22;61650;48.882;2.092;2022-07-18T10:20:57;31.70;27.50
51559;DHT22;61650;48.882;2.092;2022-07-18T10:23:56;32.00;27.30
51559;DHT22;61650;48.882;2.092;2022-07-18T10:26:18;32.10;26.50
51559;DHT22;61650;48.882;2.092;2022-07-18T10:31:23;32.40;25.80
51559;DHT22;61650;48.882;2.092;2022-07-18T10:33:49;32.40;26.20
51559;DHT22;61650;48.882;2.092;2022-07-18T10:36:15;32.40;26.80
51559;DHT22;61650;48.882;2.092;2022-07-18T10:39:04;32.10;25.70
51559;DHT22;61650;48.882;2.092;2022-07-18T10:41:32;31.90;25.70
51559;DHT22;61650;48.882;2.092;2022-07-18T10:43:57;31.80;27.40
51559;DHT22;61650;48.882;2.092;2022-07-18T10:46:23;32.10;27.00
51559;DHT22;61650;48.882;2.092;2022-07-18T10:48:52;32.40;26.60
51559;DHT22;61650;48.882;2.092;2022-07-18T10:51:19;32.60;26.50
51559;DHT22;61650;48.882;2.092;2022-07-18T10:58:58;32.90;25.10
51559;DHT22;61650;48.882;2.092;2022-07-18T11:01:25;32.80;26.20
51559;DHT22;61650;48.882;2.092;2022-07-18T11:04:29;32.90;25.90
51559;DHT22;61650;48.882;2.092;2022-07-18T11:09:42;33.00;25.80
51559;DHT22;61650;48.882;2.092;2022-07-18T11:12:26;33.10;24.10
51559;DHT22;61650;48.882;2.092;2022-07-18T11:15:11;33.20;23.60
51559;DHT22;61650;48.882;2.092;2022-07-18T11:17:57;33.20;24.80
51559;DHT22;61650;48.882;2.092;2022-07-18T11:22:59;33.40;25.10
51559;DHT22;61650;48.882;2.092;2022-07-18T11:25:28;33.40;25.30
51559;DHT22;61650;48.882;2.092;2022-07-18T11:27:55;33.50;25.10
51559;DHT22;61650;48.882;2.092;2022-07-18T11:30:23;33.50;25.00
51559;DHT22;61650;48.882;2.092;2022-07-18T11:32:48;33.60;24.80
51559;DHT22;61650;48.882;2.092;2022-07-18T11:35:14;33.70;24.80
51559;DHT22;61650;48.882;2.092;2022-07-18T11:37:47;34.30;24.70
51559;DHT22;61650;48.882;2.092;2022-07-18T11:40:14;34.90;22.70
51559;DHT22;61650;48.882;2.092;2022-07-18T11:42:41;35.20;23.20
51559;DHT22;61650;48.882;2.092;2022-07-18T11:45:09;35.50;22.30
51559;DHT22;61650;48.882;2.092;2022-07-18T11:50:13;35.50;22.30
51559;DHT22;61650;48.882;2.092;2022-07-18T11:52:39;35.40;23.20
51559;DHT22;61650;48.882;2.092;2022-07-18T11:55:05;35.10;23.50
51559;DHT22;61650;48.882;2.092;2022-07-18T11:57:32;35.00;23.50
51559;DHT22;61650;48.882;2.092;2022-07-18T12:00:00;34.80;23.60
51559;DHT22;61650;48.882;2.092;2022-07-18T12:05:37;34.90;23.20
51559;DHT22;61650;48.882;2.092;2022-07-18T12:08:37;35.10;23.40
51559;DHT22;61650;48.882;2.092;2022-07-18T12:16:24;36.30;22.10
51559;DHT22;61650;48.882;2.092;2022-07-18T12:18:50;37.00;21.10
51559;DHT22;61650;48.882;2.092;2022-07-18T12:21:16;37.70;21.70
51559;DHT22;61650;48.882;2.092;2022-07-18T12:23:42;38.10;21.60
51559;DHT22;61650;48.882;2.092;2022-07-18T12:26:07;38.50;21.50
51559;DHT22;61650;48.882;2.092;2022-07-18T12:28:33;38.40;21.10
51559;DHT22;61650;48.882;2.092;2022-07-18T12:30:58;38.80;21.20
51559;DHT22;61650;48.882;2.092;2022-07-18T12:33:25;39.30;21.00
51559;DHT22;61650;48.882;2.092;2022-07-18T12:35:56;39.50;20.50
51559;DHT22;61650;48.882;2.092;2022-07-18T12:38:22;39.30;19.70
51559;DHT22;61650;48.882;2.092;2022-07-18T12:41:00;39.60;20.10
51559;DHT22;61650;48.882;2.092;2022-07-18T12:43:37;39.10;18.20
51559;DHT22;61650;48.882;2.092;2022-07-18T12:46:10;39.30;19.30
51559;DHT22;61650;48.882;2.092;2022-07-18T12:48:37;39.60;19.40
51559;DHT22;61650;48.882;2.092;2022-07-18T12:51:07;39.80;19.60
51559;DHT22;61650;48.882;2.092;2022-07-18T12:53:35;40.10;18.70
51559;DHT22;61650;48.882;2.092;2022-07-18T12:56:02;40.40;19.20
51559;DHT22;61650;48.882;2.092;2022-07-18T12:58:28;40.70;18.90
51559;DHT22;61650;48.882;2.092;2022-07-18T13:00:53;40.70;18.60
51559;DHT22;61650;48.882;2.092;2022-07-18T13:03:21;40.60;18.80
51559;DHT22;61650;48.882;2.092;2022-07-18T13:05:47;41.00;18.80
51559;DHT22;61650;48.882;2.092;2022-07-18T13:08:12;41.10;18.60
51559;DHT22;61650;48.882;2.092;2022-07-18T13:10:38;41.50;18.50
51559;DHT22;61650;48.882;2.092;2022-07-18T13:13:05;41.70;18.20
51559;DHT22;61650;48.882;2.092;2022-07-18T13:15:31;41.50;17.90
51559;DHT22;61650;48.882;2.092;2022-07-18T13:17:58;41.10;18.40
51559;DHT22;61650;48.882;2.092;2022-07-18T13:20:24;40.90;18.90
51559;DHT22;61650;48.882;2.092;2022-07-18T13:22:50;41.20;18.50
51559;DHT22;61650;48.882;2.092;2022-07-18T13:25:16;41.40;18.50
51559;DHT22;61650;48.882;2.092;2022-07-18T13:27:42;41.40;18.50
51559;DHT22;61650;48.882;2.092;2022-07-18T13:30:08;41.60;18.10
51559;DHT22;61650;48.882;2.092;2022-07-18T13:32:35;41.70;17.70
51559;DHT22;61650;48.882;2.092;2022-07-18T13:35:01;41.40;17.90
51559;DHT22;61650;48.882;2.092;2022-07-18T13:37:26;40.70;18.30
51559;DHT22;61650;48.882;2.092;2022-07-18T13:39:52;39.80;19.10
51559;DHT22;61650;48.882;2.092;2022-07-18T13:42:17;39.00;19.30
51559;DHT22;61650;48.882;2.092;2022-07-18T13:44:44;38.60;19.40
51559;DHT22;61650;48.882;2.092;2022-07-18T13:47:14;38.30;19.40
51559;DHT22;61650;48.882;2.092;2022-07-18T13:49:39;38.30;19.60
51559;DHT22;61650;48.882;2.092;2022-07-18T13:52:05;38.30;20.00
51559;DHT22;61650;48.882;2.092;2022-07-18T13:54:31;38.40;20.00
51559;DHT22;61650;48.882;2.092;2022-07-18T13:56:56;38.50;19.80
51559;DHT22;61650;48.882;2.092;2022-07-18T13:59:22;38.40;19.80
51559;DHT22;61650;48.882;2.092;2022-07-18T14:01:48;38.30;19.70
51559;DHT22;61650;48.882;2.092;2022-07-18T14:04:15;38.10;19.80
51559;DHT22;61650;48.882;2.092;2022-07-18T14:06:41;37.90;20.10
51559;DHT22;61650;48.882;2.092;2022-07-18T14:09:06;37.80;20.00
51559;DHT22;61650;48.882;2.092;2022-07-18T14:11:32;37.70;20.00
51559;DHT22;61650;48.882;2.092;2022-07-18T14:13:59;37.60;20.00
51559;DHT22;61650;48.882;2.092;2022-07-18T14:16:24;37.60;20.00
51559;DHT22;61650;48.882;2.092;2022-07-18T14:18:50;37.60;20.00
51559;DHT22;61650;48.882;2.092;2022-07-18T14:21:16;37.60;19.90
51559;DHT22;61650;48.882;2.092;2022-07-18T14:23:41;37.50;20.10
51559;DHT22;61650;48.882;2.092;2022-07-18T14:26:07;37.60;20.10
51559;DHT22;61650;48.882;2.092;2022-07-18T14:28:33;37.60;20.30
51559;DHT22;61650;48.882;2.092;2022-07-18T14:30:58;37.50;20.20
51559;DHT22;61650;48.882;2.092;2022-07-18T14:33:24;37.50;20.30
51559;DHT22;61650;48.882;2.092;2022-07-18T14:35:49;37.40;20.40
51559;DHT22;61650;48.882;2.092;2022-07-18T14:38:15;37.30;20.20
51559;DHT22;61650;48.882;2.092;2022-07-18T14:40:40;37.40;20.00
51559;DHT22;61650;48.882;2.092;2022-07-18T14:43:07;37.30;20.00
51559;DHT22;61650;48.882;2.092;2022-07-18T14:45:32;37.20;20.30
51559;DHT22;61650;48.882;2.092;2022-07-18T14:47:58;37.10;20.80
51559;DHT22;61650;48.882;2.092;2022-07-18T14:50:24;37.00;21.00
51559;DHT22;61650;48.882;2.092;2022-07-18T14:52:49;37.10;20.80
51559;DHT22;61650;48.882;2.092;2022-07-18T14:55:15;37.20;20.40
51559;DHT22;61650;48.882;2.092;2022-07-18T14:57:40;37.20;20.50
51559;DHT22;61650;48.882;2.092;2022-07-18T15:00:07;37.20;20.30
51559;DHT22;61650;48.882;2.092;2022-07-18T15:02:34;37.30;20.30
51559;DHT22;61650;48.882;2.092;2022-07-18T15:05:02;37.10;20.40
51559;DHT22;61650;48.882;2.092;2022-07-18T15:07:27;37.00;20.60
51559;DHT22;61650;48.882;2.092;2022-07-18T15:09:53;37.00;20.40
51559;DHT22;61650;48.882;2.092;2022-07-18T15:12:19;37.00;20.30
51559;DHT22;61650;48.882;2.092;2022-07-18T15:14:44;37.10;20.10
51559;DHT22;61650;48.882;2.092;2022-07-18T15:17:10;37.00;20.30
51559;DHT22;61650;48.882;2.092;2022-07-18T15:19:35;36.90;20.60
51559;DHT22;61650;48.882;2.092;2022-07-18T15:22:01;37.00;20.50
51559;DHT22;61650;48.882;2.092;2022-07-18T15:24:27;37.00;20.40
51559;DHT22;61650;48.882;2.092;2022-07-18T15:26:53;37.10;20.40
51559;DHT22;61650;48.882;2.092;2022-07-18T15:29:18;37.10;20.10
51559;DHT22;61650;48.882;2.092;2022-07-18T15:31:44;37.10;19.80
51559;DHT22;61650;48.882;2.092;2022-07-18T15:34:09;37.00;20.10
51559;DHT22;61650;48.882;2.092;2022-07-18T15:36:35;36.90;20.00
51559;DHT22;61650;48.882;2.092;2022-07-18T15:39:01;36.90;19.80
51559;DHT22;61650;48.882;2.092;2022-07-18T15:41:26;36.80;20.00
51559;DHT22;61650;48.882;2.092;2022-07-18T15:43:52;36.80;19.90
51559;DHT22;61650;48.882;2.092;2022-07-18T15:46:17;36.80;19.90
51559;DHT22;61650;48.882;2.092;2022-07-18T15:48:44;36.70;20.00
51559;DHT22;61650;48.882;2.092;2022-07-18T15:51:11;36.60;20.20
51559;DHT22;61650;48.882;2.092;2022-07-18T15:53:37;36.70;20.00
51559;DHT22;61650;48.882;2.092;2022-07-18T15:56:03;36.80;19.90